Time;durP1;ratioP1;P1;durP2;ratioP2;P2;SDS_P1;SDS_P2;PMS_P1;PMS_P2;Temp;Humidity;BMP_temperature;BMP_pressure;BME280_temperature;BME280_humidity;BME280_pressure;Samples;Min_cycle;Max_cycle;Signal;HPM_P1;HPM_P2
2021/07/20 00:02:14;;;;;;;28.73;10.90;;;;;;;18.97;72.61;98853.53;2188771;81;21003;-64
2021/07/20 00:05:16;;;;;;;27.20;11.12;;;;;;;18.95;72.57;98858.17;2188531;81;21541;-64
2021/07/20 00:08:16;;;;;;;27.67;11.38;;;;;;;18.95;72.72;98854.19;2189029;81;21253;-64
2021/07/20 00:11:17;;;;;;;28.25;10.50;;;;;;;18.90;72.58;98849.79;2189032;81;21064;-64
2021/07/20 00:14:17;;;;;;;27.10;10.50;;;;;;;18.87;72.58;98849.58;2188879;81;20965;-64
2021/07/20 00:17:21;;;;;;;24.23;10.53;;;;;;;18.83;72.72;98845.54;2188845;81;21123;-64
2021/07/20 00:20:21;;;;;;;47.98;22.30;;;;;;;18.82;72.63;98845.19;2174027;81;20977;-64
2021/07/20 00:23:22;;;;;;;37.50;16.00;;;;;;;18.79;72.84;98832.66;2188488;81;21570;-64
2021/07/20 00:26:22;;;;;;;32.50;13.80;;;;;;;18.79;72.80;98826.02;2188774;81;20953;-64
2021/07/20 00:29:23;;;;;;;31.00;12.80;;;;;;;18.89;72.70;98836.65;2188997;81;20988;-64
2021/07/20 00:32:23;;;;;;;28.00;12.18;;;;;;;18.82;72.56;98841.20;2189021;81;21049;-64
2021/07/20 00:35:24;;;;;;;29.95;11.78;;;;;;;18.76;72.63;98840.46;2189001;81;20965;-64
2021/07/20 00:38:26;;;;;;;27.85;11.38;;;;;;;18.72;72.69;98843.53;2188864;81;21049;-64
2021/07/20 00:41:26;;;;;;;;;;;;;;;18.69;72.91;98841.52;2191719;81;20985;-64
2021/07/20 00:44:27;;;;;;;31.60;12.47;;;;;;;18.68;73.05;98843.00;2188597;81;20128;-64
2021/07/20 00:47:27;;;;;;;27.40;11.60;;;;;;;18.63;73.24;98834.61;2188480;81;21546;-64
2021/07/20 00:50:28;;;;;;;29.75;11.93;;;;;;;18.60;73.24;98833.08;2188866;81;21474;-64
2021/07/20 00:53:28;;;;;;;27.60;11.38;;;;;;;18.60;73.50;98837.56;2189000;81;21063;-64
2021/07/20 00:56:29;;;;;;;25.75;10.90;;;;;;;18.62;73.64;98828.48;2189093;81;21032;-64
2021/07/20 00:59:29;;;;;;;26.93;11.28;;;;;;;18.71;73.44;98825.44;2188820;81;21036;-64
2021/07/20 01:02:29;;;;;;;27.27;11.57;;;;;;;18.71;73.21;98818.80;2188805;81;20933;-64
2021/07/20 01:05:30;;;;;;;27.93;11.80;;;;;;;18.73;73.30;98819.97;2188648;81;20988;-64
2021/07/20 01:08:30;;;;;;;30.40;13.03;;;;;;;18.71;73.20;98820.13;2188831;81;21459;-64
2021/07/20 01:11:31;;;;;;;26.37;12.33;;;;;;;18.61;73.52;98819.33;2188588;81;21017;-64
2021/07/20 01:14:32;;;;;;;27.55;11.90;;;;;;;18.50;73.74;98813.22;2188823;81;20976;-64
2021/07/20 01:17:32;;;;;;;31.27;11.80;;;;;;;18.43;73.94;98808.61;2188822;81;21048;-64
2021/07/20 01:20:33;;;;;;;29.85;13.05;;;;;;;18.47;73.91;98813.48;2188832;81;20966;-64
2021/07/20 01:23:34;;;;;;;26.82;12.20;;;;;;;18.45;73.92;98817.28;2188542;81;21028;-64
2021/07/20 01:26:34;;;;;;;29.23;12.60;;;;;;;18.34;74.11;98815.12;2188697;81;21003;-64
2021/07/20 01:29:35;;;;;;;29.18;13.08;;;;;;;18.21;74.26;98814.59;2188702;81;21008;-64
2021/07/20 01:32:35;;;;;;;30.27;13.20;;;;;;;18.14;74.38;98818.80;2188658;81;20981;-64
2021/07/20 01:35:36;;;;;;;27.87;12.23;;;;;;;18.08;74.54;98819.37;2188693;81;20957;-64
2021/07/20 01:38:36;;;;;;;29.87;12.15;;;;;;;17.97;75.41;98821.20;2188610;81;21004;-64
2021/07/20 01:41:36;;;;;;;30.80;12.58;;;;;;;17.91;75.41;98819.09;2188953;81;20917;-64
2021/07/20 01:44:37;;;;;;;28.70;12.37;;;;;;;17.86;75.53;98816.02;2188616;81;20949;-64
2021/07/20 01:47:37;;;;;;;29.20;12.75;;;;;;;17.78;75.63;98813.22;2172632;81;20993;-64
2021/07/20 01:50:38;;;;;;;28.10;12.18;;;;;;;17.74;75.76;98818.45;2172229;81;21506;-64
2021/07/20 01:53:38;;;;;;;33.15;13.60;;;;;;;17.66;75.88;98816.50;2172162;81;21322;-64
2021/07/20 01:56:39;;;;;;;28.20;12.35;;;;;;;17.64;76.26;98815.31;2172339;81;20933;-64
2021/07/20 01:59:40;;;;;;;28.17;13.30;;;;;;;17.57;76.89;98827.45;2172342;81;20956;-64
2021/07/20 02:02:55;;;;;;;34.13;13.55;;;;;;;17.48;76.61;98822.50;2172149;81;20997;-64
2021/07/20 02:08:45;;;;;;;32.88;12.60;;;;;;;17.46;76.66;98826.25;2186877;81;20124;-64
2021/07/20 02:11:45;;;;;;;28.52;12.47;;;;;;;17.53;76.18;98819.89;2172064;81;21053;-64
2021/07/20 02:14:46;;;;;;;31.25;12.73;;;;;;;17.57;76.03;98812.87;2172082;81;21555;-64
2021/07/20 02:17:46;;;;;;;30.02;13.43;;;;;;;17.63;75.82;98816.78;2172340;81;20969;-64
2021/07/20 02:20:47;;;;;;;30.27;13.72;;;;;;;17.59;75.93;98816.20;2172298;81;21008;-64
2021/07/20 02:23:48;;;;;;;29.63;12.73;;;;;;;17.53;76.04;98815.45;2171850;82;21043;-64
2021/07/20 02:26:48;;;;;;;26.75;11.97;;;;;;;17.47;75.94;98816.01;2172211;81;21031;-64
2021/07/20 02:29:48;;;;;;;32.65;12.88;;;;;;;17.43;76.06;98815.43;2172192;81;21465;-64
2021/07/20 02:32:49;;;;;;;33.63;13.50;;;;;;;17.38;75.88;98810.19;2171923;81;21530;-64
2021/07/20 02:35:50;;;;;;;29.25;13.03;;;;;;;17.37;75.89;98805.38;2172433;81;20961;-64
2021/07/20 02:38:51;;;;;;;30.15;13.00;;;;;;;17.43;75.94;98807.48;2172213;81;21082;-63
2021/07/20 02:41:51;;;;;;;32.00;13.15;;;;;;;17.47;75.70;98814.18;2172158;81;21018;-64
2021/07/20 02:44:52;;;;;;;32.23;13.45;;;;;;;17.48;75.77;98818.98;2172061;81;21578;-63
2021/07/20 02:47:52;;;;;;;35.40;14.40;;;;;;;17.38;76.13;98819.47;2171976;81;21077;-64
2021/07/20 02:50:53;;;;;;;29.23;12.33;;;;;;;17.39;76.09;98823.30;2172320;81;20989;-64
2021/07/20 02:53:53;;;;;;;29.85;12.13;;;;;;;17.39;76.19;98827.78;2172130;81;21016;-64
2021/07/20 02:56:54;;;;;;;31.93;12.82;;;;;;;17.39;76.18;98835.23;2172135;81;20969;-64
2021/07/20 02:59:54;;;;;;;29.52;12.65;;;;;;;17.39;76.09;98835.23;2172088;81;21060;-64
2021/07/20 03:02:55;;;;;;;32.40;13.20;;;;;;;17.40;76.06;98836.92;2172014;81;21548;-64
2021/07/20 03:05:55;;;;;;;29.70;12.70;;;;;;;17.42;76.20;98846.89;2172066;81;20992;-64
2021/07/20 03:08:58;;;;;;;31.90;12.33;;;;;;;17.42;76.07;98852.69;2172520;81;20985;-64
2021/07/20 03:11:58;;;;;;;;;;;;;;;17.33;76.16;98857.49;2168666;82;20966;-64
2021/07/20 03:14:58;;;;;;;30.02;11.57;;;;;;;17.26;76.71;98855.36;2172610;81;20124;-64
2021/07/20 03:17:59;;;;;;;29.48;12.05;;;;;;;17.14;76.71;98851.98;2172306;81;20954;-64
2021/07/20 03:20:59;;;;;;;33.60;12.82;;;;;;;17.12;76.97;98856.60;2172199;81;20985;-63
2021/07/20 03:24:00;;;;;;;29.40;12.30;;;;;;;17.05;77.01;98855.46;2172304;81;20997;-64
2021/07/20 03:27:00;;;;;;;28.17;13.25;;;;;;;16.97;77.14;98854.78;2172275;81;21543;-64
2021/07/20 03:30:01;;;;;;;30.23;12.75;;;;;;;16.85;77.24;98853.19;2172195;81;21021;-64
2021/07/20 03:33:01;;;;;;;28.92;12.60;;;;;;;16.80;77.35;98850.09;2172191;81;21017;-64
2021/07/20 03:36:02;;;;;;;28.07;12.37;;;;;;;16.82;77.32;98853.43;2172454;81;20973;-64
2021/07/20 03:39:02;;;;;;;31.12;12.63;;;;;;;16.88;77.26;98851.63;2172339;81;20977;-64
2021/07/20 03:42:03;;;;;;;33.42;13.38;;;;;;;17.04;77.13;98859.54;2172248;81;21048;-63
2021/07/20 03:45:03;;;;;;;33.55;12.95;;;;;;;17.14;76.81;98857.79;2172320;81;21892;-64
2021/07/20 03:48:04;;;;;;;34.65;13.22;;;;;;;17.19;76.68;98862.67;2187290;81;21009;-64
2021/07/20 03:51:04;;;;;;;30.92;13.30;;;;;;;17.20;76.65;98867.02;2188913;81;20977;-64
2021/07/20 03:54:05;;;;;;;30.70;13.40;;;;;;;17.24;76.73;98859.98;2188901;81;21099;-64
2021/07/20 03:57:05;;;;;;;27.52;12.75;;;;;;;17.24;76.58;98863.09;2188923;81;20969;-64
2021/07/20 04:00:06;;;;;;;31.20;13.62;;;;;;;17.25;76.63;98862.12;2188911;81;21519;-64
2021/07/20 04:06:08;;;;;;;;;;;;;;;17.27;76.93;98877.43;2176651;81;21062;-64
2021/07/20 04:09:09;;;;;;;31.25;13.62;;;;;;;17.25;76.68;98879.36;2189291;81;20403;-64
2021/07/20 04:12:09;;;;;;;33.40;14.28;;;;;;;17.18;77.08;98884.34;2188953;81;20978;-64
2021/07/20 04:15:10;;;;;;;32.03;13.50;;;;;;;17.12;76.99;98880.91;2189025;81;20969;-64
2021/07/20 04:18:11;;;;;;;29.85;13.30;;;;;;;17.05;77.42;98887.26;2188380;81;21013;-64
2021/07/20 04:21:11;;;;;;;33.92;13.75;;;;;;;16.99;77.39;98885.62;2188653;81;21032;-64
2021/07/20 04:24:12;;;;;;;33.25;13.25;;;;;;;17.04;77.58;98890.02;2188502;81;21503;-64
2021/07/20 04:27:13;;;;;;;31.15;13.40;;;;;;;17.06;77.26;98890.23;2188997;81;21008;-64
2021/07/20 04:30:13;;;;;;;29.85;13.35;;;;;;;17.07;77.47;98887.13;2188836;81;21028;-64
2021/07/20 04:33:14;;;;;;;32.83;13.25;;;;;;;17.02;77.61;98887.50;2188735;81;20981;-64
2021/07/20 04:36:14;;;;;;;30.30;12.03;;;;;;;16.96;77.26;98888.87;2188827;81;21040;-64
2021/07/20 04:39:15;;;;;;;37.53;12.63;;;;;;;16.95;77.23;98887.21;2188723;81;21515;-64
2021/07/20 04:42:16;;;;;;;31.97;12.90;;;;;;;16.99;77.16;98888.27;2188836;81;21029;-64
2021/07/20 04:45:16;;;;;;;27.75;12.13;;;;;;;17.06;77.00;98884.94;2188972;81;21076;-64
2021/07/20 04:48:17;;;;;;;32.78;13.70;;;;;;;17.14;76.75;98886.94;2188770;81;21032;-64
2021/07/20 04:51:17;;;;;;;31.35;13.70;;;;;;;17.20;76.65;98878.44;2188734;81;20988;-64
2021/07/20 04:54:18;;;;;;;31.17;12.50;;;;;;;17.34;76.77;98884.33;2188767;81;21531;-63
2021/07/20 04:57:18;;;;;;;31.12;12.60;;;;;;;17.43;76.17;98887.52;2188627;81;20996;-63
2021/07/20 05:00:19;;;;;;;30.27;13.28;;;;;;;17.48;75.97;98882.63;2188983;81;21032;-64
2021/07/20 05:03:19;;;;;;;32.88;13.10;;;;;;;17.52;75.96;98880.05;2188937;81;20976;-64
2021/07/20 05:06:20;;;;;;;31.23;12.75;;;;;;;17.63;75.78;98880.44;2188612;81;21052;-64
2021/07/20 05:09:21;;;;;;;30.77;12.80;;;;;;;17.68;75.90;98876.86;2188463;81;21523;-64
2021/07/20 05:12:21;;;;;;;29.32;12.47;;;;;;;17.76;75.01;98881.00;2188792;81;21456;-64
2021/07/20 05:15:22;;;;;;;28.05;12.63;;;;;;;17.85;75.01;98876.67;2188700;81;21128;-64
2021/07/20 05:18:23;;;;;;;28.40;11.95;;;;;;;17.96;75.26;98879.73;2188741;81;20988;-63
2021/07/20 05:21:23;;;;;;;26.95;12.47;;;;;;;18.05;74.99;98887.34;2188762;81;21024;-64
2021/07/20 05:24:24;;;;;;;29.72;12.85;;;;;;;18.09;74.12;98885.59;2188811;81;20989;-64
2021/07/20 05:27:24;;;;;;;32.85;13.62;;;;;;;18.15;73.85;98875.72;2188678;81;21475;-64
2021/07/20 05:30:25;;;;;;;29.12;13.03;;;;;;;18.30;73.84;98884.11;2188663;81;21019;-64
2021/07/20 05:33:25;;;;;;;31.52;13.83;;;;;;;18.50;74.00;98872.97;2188792;81;20976;-64
2021/07/20 05:36:27;;;;;;;30.37;13.28;;;;;;;18.74;73.17;98882.77;2188938;81;20953;-64
2021/07/20 05:39:32;;;;;;;31.52;13.50;;;;;;;18.81;72.79;98880.70;2188915;81;20985;-64
2021/07/20 05:42:30;;;;;;;28.47;13.62;;;;;;;18.84;72.38;98884.39;2173664;81;21048;-64
2021/07/20 05:45:31;;;;;;;31.25;13.22;;;;;;;18.85;72.54;98889.23;2188773;81;21502;-64
2021/07/20 05:48:31;;;;;;;32.55;12.65;;;;;;;18.92;72.32;98889.50;2173524;81;21065;-64
2021/07/20 05:51:32;;;;;;;28.38;12.40;;;;;;;18.93;72.06;98884.54;2187959;81;21068;-64
2021/07/20 05:54:33;;;;;;;30.10;12.90;;;;;;;18.96;72.56;98879.75;2188900;81;20973;-64
2021/07/20 05:57:33;;;;;;;27.85;13.08;;;;;;;19.05;72.19;98883.39;2188639;81;21053;-64
2021/07/20 06:00:34;;;;;;;29.00;13.18;;;;;;;19.12;72.00;98883.61;2188786;81;21479;-64
2021/07/20 06:03:35;;;;;;;31.60;13.48;;;;;;;19.20;72.00;98881.89;2188700;81;20981;-64
2021/07/20 06:06:36;;;;;;;28.12;12.55;;;;;;;19.21;71.55;98883.58;2189019;81;20984;-64
2021/07/20 06:09:36;;;;;;;27.42;12.45;;;;;;;19.31;71.59;98887.99;2188701;81;21068;-64
2021/07/20 06:12:36;;;;;;;33.40;13.15;;;;;;;19.34;71.16;98890.38;2188755;81;20972;-64
2021/07/20 06:15:37;;;;;;;27.77;12.37;;;;;;;19.43;71.04;98890.81;2188768;81;21432;-64
2021/07/20 06:18:38;;;;;;;29.98;12.40;;;;;;;19.58;70.49;98897.78;2188561;81;21326;-64
2021/07/20 06:21:40;;;;;;;31.40;12.50;;;;;;;19.57;69.02;98906.77;2188789;81;21047;-64
2021/07/20 06:24:41;;;;;;;29.35;12.45;;;;;;;19.57;69.41;98910.76;2188814;81;21020;-64
2021/07/20 06:27:42;;;;;;;28.95;12.00;;;;;;;19.63;68.96;98918.64;2188756;81;21452;-64
2021/07/20 06:30:42;;;;;;;30.25;12.88;;;;;;;19.59;68.63;98914.59;2188975;81;20989;-64
2021/07/20 06:33:43;;;;;;;29.02;12.95;;;;;;;19.69;69.02;98914.04;2188714;81;20996;-65
2021/07/20 06:36:43;;;;;;;29.80;12.60;;;;;;;19.77;68.56;98914.61;2188796;81;21044;-64
2021/07/20 06:39:44;;;;;;;28.27;12.88;;;;;;;19.90;68.22;98912.47;2188719;81;21009;-64
2021/07/20 06:42:44;;;;;;;29.63;11.75;;;;;;;19.97;67.62;98912.20;2188588;81;21470;-64
2021/07/20 06:45:45;;;;;;;27.05;11.93;;;;;;;20.07;67.62;98912.13;2188833;81;21020;-64
2021/07/20 06:48:46;;;;;;;30.77;11.77;;;;;;;20.06;66.44;98903.80;2188974;81;20977;-64
2021/07/20 06:51:46;;;;;;;27.87;11.80;;;;;;;20.12;67.15;98902.35;2172634;81;21301;-64
2021/07/20 06:54:47;;;;;;;29.75;11.85;;;;;;;20.35;67.40;98905.37;2172055;81;21060;-64
2021/07/20 06:57:47;;;;;;;26.00;11.10;;;;;;;20.42;65.78;98900.59;2172143;81;21819;-64
2021/07/20 07:00:48;;;;;;;28.60;10.58;;;;;;;20.43;65.89;98905.44;2172038;81;21108;-64
2021/07/20 07:03:48;;;;;;;28.15;11.35;;;;;;;20.45;65.53;98905.28;2172025;81;21072;-64
2021/07/20 07:06:50;;;;;;;28.73;11.55;;;;;;;20.62;65.06;98900.91;2172382;81;20981;-64
2021/07/20 07:09:51;;;;;;;25.68;11.03;;;;;;;20.66;64.28;98908.91;2171631;82;21025;-64
2021/07/20 07:12:52;;;;;;;27.62;11.95;;;;;;;20.88;64.64;98911.09;2172377;81;21503;-64
2021/07/20 07:15:52;;;;;;;26.15;10.35;;;;;;;20.99;63.81;98911.80;2172268;81;21520;-64
2021/07/20 07:18:53;;;;;;;27.32;11.45;;;;;;;21.06;62.58;98914.17;2172019;81;21076;-64
2021/07/20 07:21:53;;;;;;;30.80;11.53;;;;;;;21.08;62.71;98915.70;2172195;81;20993;-64
2021/07/20 07:24:54;;;;;;;26.70;10.25;;;;;;;21.15;62.87;98917.72;2172349;81;20990;-64
2021/07/20 07:27:54;;;;;;;27.15;10.20;;;;;;;21.24;62.78;98914.11;2172000;81;21036;-65
2021/07/20 07:30:55;;;;;;;26.07;10.08;;;;;;;21.28;61.71;98921.63;2171940;81;21064;-65
2021/07/20 07:33:55;;;;;;;24.27;9.95;;;;;;;21.45;62.09;98915.04;2171970;82;21516;-65
2021/07/20 07:36:56;;;;;;;27.17;10.05;;;;;;;21.65;61.36;98916.97;2172021;81;21021;-64
2021/07/20 07:39:56;;;;;;;24.30;11.03;;;;;;;21.93;61.00;98915.34;2172525;81;21017;-63
2021/07/20 07:42:56;;;;;;;26.47;10.33;;;;;;;21.86;59.26;98916.50;2172524;81;20950;-63
2021/07/20 07:45:57;;;;;;;26.63;10.70;;;;;;;21.72;59.05;98913.13;2172490;81;20950;-64
2021/07/20 07:48:57;;;;;;;23.73;9.83;;;;;;;21.59;58.90;98913.12;2172416;81;21051;-64
2021/07/20 07:51:58;;;;;;;23.40;9.75;;;;;;;21.75;60.31;98913.66;2172065;81;21564;-64
2021/07/20 07:54:58;;;;;;;25.92;9.93;;;;;;;21.93;58.14;98907.34;2172431;81;21729;-63
2021/07/20 07:57:59;;;;;;;24.25;9.10;;;;;;;22.13;58.05;98908.69;2172339;81;20997;-63
2021/07/20 08:00:59;;;;;;;25.40;9.87;;;;;;;22.33;57.42;98912.41;2172528;81;20950;-64
2021/07/20 08:03:59;;;;;;;24.27;9.85;;;;;;;22.62;57.32;98911.05;2172590;81;20953;-63
2021/07/20 08:07:00;;;;;;;28.30;10.03;;;;;;;22.87;57.45;98919.88;2172537;81;20973;-63
2021/07/20 08:10:00;;;;;;;25.20;9.87;;;;;;;22.99;57.41;98913.14;2172072;81;20997;-64
2021/07/20 08:13:02;;;;;;;23.10;9.43;;;;;;;23.06;54.56;98914.64;2172517;81;20965;-64
2021/07/20 08:16:03;;;;;;;26.90;9.88;;;;;;;23.14;55.47;98918.67;2172181;81;21069;-64
2021/07/20 08:19:04;;;;;;;24.33;9.20;;;;;;;23.39;56.66;98915.03;2172776;81;20981;-64
2021/07/20 08:22:08;;;;;;;23.03;9.27;;;;;;;23.55;54.79;98919.48;2172394;81;20965;-64
2021/07/20 08:25:07;;;;;;;23.15;8.93;;;;;;;23.41;53.34;98915.72;2119687;84;21052;-63
2021/07/20 08:28:08;;;;;;;22.32;8.80;;;;;;;23.22;53.21;98914.30;2127815;84;21048;-63
2021/07/20 08:31:09;;;;;;;23.47;8.80;;;;;;;23.28;53.36;98917.61;2127835;84;21490;-63
2021/07/20 08:34:09;;;;;;;23.10;8.98;;;;;;;23.40;54.75;98915.38;2127981;84;21031;-63
2021/07/20 08:37:10;;;;;;;22.57;9.30;;;;;;;23.60;53.55;98911.77;2128090;84;20945;-63
2021/07/20 08:40:11;;;;;;;21.33;8.23;;;;;;;23.76;53.22;98906.34;2127955;84;21067;-63
2021/07/20 08:43:11;;;;;;;22.20;8.47;;;;;;;23.80;52.08;98908.14;2127956;84;21423;-63
2021/07/20 08:46:12;;;;;;;23.30;8.77;;;;;;;23.69;52.45;98914.23;2127845;84;20957;-64
2021/07/20 08:49:12;;;;;;;22.70;9.03;;;;;;;23.62;52.16;98907.91;2128085;84;20948;-64
2021/07/20 08:52:12;;;;;;;24.43;8.50;;;;;;;23.92;53.65;98907.25;2127973;83;21056;-63
2021/07/20 08:55:13;;;;;;;22.13;8.90;;;;;;;24.12;51.63;98907.61;2127740;84;21113;-64
2021/07/20 08:58:14;;;;;;;21.40;7.37;;;;;;;24.17;52.03;98901.22;2127824;84;20980;-64
2021/07/20 09:01:14;;;;;;;21.30;7.10;;;;;;;24.23;50.63;98905.03;2127613;84;21000;-64
2021/07/20 09:04:14;;;;;;;17.77;5.90;;;;;;;24.38;49.16;98900.05;2127918;84;21649;-64
2021/07/20 09:07:15;;;;;;;19.27;6.27;;;;;;;24.47;47.92;98902.14;2127951;84;21072;-64
2021/07/20 09:10:15;;;;;;;19.37;6.50;;;;;;;24.49;47.84;98898.75;2127807;84;21026;-64
2021/07/20 09:13:16;;;;;;;18.60;6.37;;;;;;;24.51;48.09;98899.91;2127761;84;21023;-65
2021/07/20 09:16:17;;;;;;;18.67;6.47;;;;;;;24.66;47.39;98897.31;2128063;84;20999;-64
2021/07/20 09:19:17;;;;;;;17.60;5.83;;;;;;;25.01;47.25;98893.57;2127931;84;21028;-64
2021/07/20 09:22:17;;;;;;;20.03;6.40;;;;;;;25.54;45.40;98900.17;2127473;84;21573;-64
2021/07/20 09:25:18;;;;;;;19.07;6.13;;;;;;;25.33;43.69;98898.25;2127914;84;21582;-64
2021/07/20 09:28:18;;;;;;;17.97;6.13;;;;;;;25.17;44.44;98897.42;2127794;84;20976;-64
2021/07/20 09:31:19;;;;;;;19.53;6.80;;;;;;;25.34;45.25;98894.55;2127892;84;20933;-64
2021/07/20 09:34:20;;;;;;;17.87;6.00;;;;;;;25.58;43.43;98894.22;2127923;84;21013;-64
2021/07/20 09:37:20;;;;;;;21.95;7.00;;;;;;;25.67;42.84;98888.22;2127794;84;20991;-64
2021/07/20 09:40:21;;;;;;;17.83;6.57;;;;;;;25.81;45.08;98891.08;2127917;84;21465;-64
2021/07/20 09:43:22;;;;;;;19.50;6.62;;;;;;;25.79;43.86;98896.64;2127310;84;21091;-64
2021/07/20 09:46:23;;;;;;;20.07;7.20;;;;;;;25.45;41.70;98893.25;2127713;84;20991;-64
2021/07/20 09:49:23;;;;;;;21.73;7.17;;;;;;;25.13;44.47;98894.78;2127580;84;21019;-67
2021/07/20 09:52:23;;;;;;;22.27;7.30;;;;;;;25.13;44.37;98892.59;2136380;83;21039;-64
2021/07/20 09:55:24;;;;;;;19.37;6.87;;;;;;;25.08;42.95;98889.13;2137451;83;21044;-64
2021/07/20 09:58:24;;;;;;;19.33;6.67;;;;;;;24.96;43.91;98886.61;2137420;83;20964;-64
2021/07/20 10:01:25;;;;;;;20.23;7.47;;;;;;;25.13;44.07;98878.69;2137381;83;21507;-64
2021/07/20 10:04:25;;;;;;;22.73;7.10;;;;;;;25.42;41.84;98883.72;2137283;83;21035;-64
2021/07/20 10:07:26;;;;;;;20.43;6.50;;;;;;;25.13;42.55;98880.02;2137665;83;20961;-64
2021/07/20 10:10:26;;;;;;;21.53;6.97;;;;;;;24.79;43.41;98879.24;2137559;83;20941;-64
2021/07/20 10:13:26;;;;;;;22.07;7.07;;;;;;;24.53;42.92;98871.91;2137387;83;20956;-64
2021/07/20 10:16:27;;;;;;;22.83;7.47;;;;;;;24.26;43.48;98871.99;2137198;83;21079;-66
2021/07/20 10:19:28;;;;;;;20.43;7.27;;;;;;;24.14;43.54;98876.95;2137277;83;21511;-64
2021/07/20 10:22:28;;;;;;;20.33;6.50;;;;;;;23.97;43.87;98873.56;2137235;83;21035;-64
2021/07/20 10:25:29;;;;;;;21.97;7.63;;;;;;;23.90;44.15;98874.47;2137251;83;21078;-64
2021/07/20 10:28:29;;;;;;;21.33;7.30;;;;;;;23.74;44.25;98868.17;2137640;83;20971;-64
2021/07/20 10:31:29;;;;;;;21.13;6.87;;;;;;;23.59;44.23;98867.27;2137496;83;20992;-64
2021/07/20 10:34:31;;;;;;;21.87;7.13;;;;;;;23.43;44.62;98868.19;2137402;83;21016;-64
2021/07/20 10:37:31;;;;;;;19.87;7.60;;;;;;;23.23;44.94;98859.76;2137145;83;21581;-64
2021/07/20 10:40:32;;;;;;;21.93;7.33;;;;;;;23.13;45.81;98862.64;2137283;83;20988;-64
2021/07/20 10:43:32;;;;;;;22.10;7.37;;;;;;;23.14;45.42;98853.13;2137240;83;21068;-64
2021/07/20 10:46:33;;;;;;;26.20;7.33;;;;;;;23.10;47.05;98857.61;2137337;83;21007;-64
2021/07/20 10:49:33;;;;;;;20.73;7.33;;;;;;;23.33;46.24;98859.03;2137486;83;21012;-64
2021/07/20 10:52:34;;;;;;;22.07;7.47;;;;;;;23.45;45.25;98859.50;2136900;83;21047;-64
2021/07/20 10:55:34;;;;;;;20.37;7.27;;;;;;;23.78;45.15;98863.31;2137387;83;21575;-64
2021/07/20 10:58:36;;;;;;;19.77;7.47;;;;;;;24.69;44.96;98848.16;2137232;83;20984;-64
2021/07/20 11:01:37;;;;;;;20.82;7.25;;;;;;;25.48;43.28;98845.89;2136991;83;20972;-64
2021/07/20 11:04:37;;;;;;;19.50;6.93;;;;;;;25.81;43.88;98836.01;2137351;83;21558;-64
2021/07/20 11:07:38;;;;;;;19.97;7.20;;;;;;;25.92;42.88;98834.16;2137385;83;21570;-64
2021/07/20 11:10:38;;;;;;;19.20;7.10;;;;;;;25.75;43.18;98829.55;2137163;83;21011;-64
2021/07/20 11:13:40;;;;;;;23.13;7.60;;;;;;;25.31;41.76;98833.16;2137368;83;20984;-64
2021/07/20 11:16:41;;;;;;;20.40;7.25;;;;;;;24.64;42.28;98836.31;2137261;83;21011;-64
2021/07/20 11:19:42;;;;;;;19.33;6.77;;;;;;;24.25;43.65;98848.06;2137248;83;20945;-64
2021/07/20 11:22:43;;;;;;;19.55;6.70;;;;;;;23.92;44.70;98848.33;2137010;83;21059;-64
2021/07/20 11:25:43;;;;;;;20.23;7.57;;;;;;;23.56;44.89;98851.07;2137342;83;20988;-64
2021/07/20 11:28:44;;;;;;;22.30;8.13;;;;;;;23.37;46.01;98849.66;2137570;83;20988;-64
2021/07/20 11:31:45;;;;;;;22.80;8.33;;;;;;;23.33;45.50;98845.66;2137631;83;20988;-66
2021/07/20 11:34:45;;;;;;;21.03;7.67;;;;;;;23.43;45.52;98843.62;2137672;83;21008;-64
2021/07/20 11:37:47;;;;;;;22.00;7.33;;;;;;;23.57;45.80;98851.89;2137485;83;20992;-64
2021/07/20 11:40:48;;;;;;;21.02;7.17;;;;;;;23.62;45.54;98851.70;2137294;83;21046;-64
2021/07/20 11:43:48;;;;;;;20.50;7.17;;;;;;;23.82;46.21;98849.38;2137641;83;21024;-64
2021/07/20 11:46:49;;;;;;;20.37;7.47;;;;;;;24.15;44.70;98847.82;2137506;83;21023;-66
2021/07/20 11:49:50;;;;;;;21.37;7.47;;;;;;;24.27;45.20;98845.53;2137493;83;20980;-64
2021/07/20 11:52:52;;;;;;;21.00;7.60;;;;;;;24.45;44.65;98844.36;2128635;83;21557;-65
2021/07/20 11:55:54;;;;;;;21.35;7.10;;;;;;;24.75;44.90;98837.20;2127458;84;21127;-64
2021/07/20 11:58:54;;;;;;;19.47;6.63;;;;;;;24.95;44.43;98836.13;2127583;84;20980;-64
2021/07/20 12:01:55;;;;;;;19.37;6.50;;;;;;;24.96;43.85;98839.14;2127860;84;21007;-64
2021/07/20 12:04:55;;;;;;;24.33;6.57;;;;;;;24.79;43.28;98837.67;2127864;84;20996;-64
2021/07/20 12:07:55;;;;;;;18.90;5.87;;;;;;;24.72;43.02;98837.56;2127992;84;21038;-64
2021/07/20 12:10:56;;;;;;;20.53;6.27;;;;;;;24.51;42.93;98836.42;2127969;84;21037;-64
2021/07/20 12:13:56;;;;;;;19.77;6.27;;;;;;;24.45;43.00;98837.17;2127883;84;20984;-64
2021/07/20 12:16:57;;;;;;;20.00;6.57;;;;;;;24.38;43.23;98826.33;2127692;84;21498;-65
2021/07/20 12:19:57;;;;;;;20.87;5.73;;;;;;;24.38;44.48;98832.22;2127890;84;21295;-64
2021/07/20 12:22:58;;;;;;;20.70;6.27;;;;;;;24.32;42.76;98828.90;2127843;84;21035;-64
2021/07/20 12:25:58;;;;;;;19.53;6.57;;;;;;;24.29;43.98;98826.59;2128070;84;21015;-64
2021/07/20 12:28:58;;;;;;;18.30;6.43;;;;;;;24.24;43.63;98831.16;2127993;84;21012;-65
2021/07/20 12:31:59;;;;;;;17.60;5.77;;;;;;;24.27;43.93;98832.65;2127932;84;21024;-64
2021/07/20 12:34:59;;;;;;;23.03;6.83;;;;;;;24.20;43.73;98837.89;2127808;84;21011;-64
2021/07/20 12:38:00;;;;;;;17.97;5.70;;;;;;;24.23;43.68;98832.69;2127961;84;20981;-65
2021/07/20 12:41:00;;;;;;;17.80;6.53;;;;;;;24.22;43.32;98826.47;2127922;84;21523;-64
2021/07/20 12:44:01;;;;;;;19.33;6.60;;;;;;;24.23;44.41;98821.97;2127805;84;20972;-64
2021/07/20 12:47:01;;;;;;;18.03;6.13;;;;;;;24.30;43.22;98821.56;2127839;84;20979;-64
2021/07/20 12:50:02;;;;;;;21.20;6.77;;;;;;;24.39;43.94;98828.01;2128071;84;20969;-64
2021/07/20 12:53:03;;;;;;;20.63;6.30;;;;;;;24.57;45.34;98817.44;2135980;83;21072;-64
2021/07/20 12:56:05;;;;;;;20.27;6.22;;;;;;;24.73;45.67;98823.16;2136782;83;21558;-64
2021/07/20 12:59:05;;;;;;;20.63;5.70;;;;;;;24.83;46.28;98817.00;2137499;83;20991;-64
2021/07/20 13:02:05;;;;;;;19.43;6.20;;;;;;;24.95;46.23;98819.20;2137187;83;21063;-65
2021/07/20 13:05:06;;;;;;;18.77;6.30;;;;;;;25.01;46.30;98816.62;2137574;83;20960;-65
2021/07/20 13:08:07;;;;;;;18.30;5.80;;;;;;;25.07;45.92;98819.89;2137483;83;20956;-64
2021/07/20 13:11:07;;;;;;;21.20;5.97;;;;;;;25.14;45.61;98827.18;2137439;83;21507;-64
2021/07/20 13:14:08;;;;;;;21.07;6.23;;;;;;;25.17;46.09;98815.58;2137358;83;21051;-65
2021/07/20 13:17:08;;;;;;;23.63;7.83;;;;;;;25.16;46.11;98815.77;2137358;83;21019;-64
2021/07/20 13:20:08;;;;;;;22.90;8.63;;;;;;;25.14;46.03;98815.95;2137584;83;21039;-64
2021/07/20 13:23:09;;;;;;;20.83;6.97;;;;;;;25.11;46.64;98814.14;2136990;83;21034;-64
2021/07/20 13:26:10;;;;;;;20.03;6.90;;;;;;;25.07;46.85;98808.34;2137433;83;21008;-64
2021/07/20 13:29:10;;;;;;;20.03;6.20;;;;;;;25.02;47.63;98810.22;2137376;83;21530;-64
2021/07/20 13:32:11;;;;;;;18.32;6.10;;;;;;;25.06;47.00;98808.83;2137138;83;21494;-64
2021/07/20 13:35:12;;;;;;;22.70;7.20;;;;;;;25.18;47.20;98810.51;2137448;83;20995;-64
2021/07/20 13:38:12;;;;;;;19.60;6.90;;;;;;;25.39;46.71;98805.73;2137313;83;20960;-64
2021/07/20 13:41:12;;;;;;;20.03;7.00;;;;;;;25.70;46.52;98804.61;2137536;83;20940;-65
2021/07/20 13:44:13;;;;;;;19.80;6.33;;;;;;;26.05;45.87;98801.23;2137412;83;20952;-64
2021/07/20 13:47:13;;;;;;;22.93;6.87;;;;;;;26.40;43.42;98798.05;2137440;83;21079;-64
2021/07/20 13:50:14;;;;;;;24.17;6.97;;;;;;;26.79;44.21;98798.52;2137280;83;21513;-64
2021/07/20 13:53:14;;;;;;;19.70;5.67;;;;;;;27.26;44.86;98801.41;2128642;83;20961;-65
2021/07/20 13:56:15;;;;;;;17.07;5.13;;;;;;;27.38;40.44;98805.19;2127696;84;20973;-64
2021/07/20 13:59:16;;;;;;;16.55;5.03;;;;;;;27.29;38.66;98799.66;2127795;84;21024;-64
2021/07/20 14:02:16;;;;;;;16.17;5.20;;;;;;;26.94;39.27;98792.49;2127978;84;21039;-64